sensor_id;sensor_type;location;lat;lon;timestamp;temperature;humidity
25482;DHT22;13395;50.752;4.268;2022-07-18T00:01:02;18.00;99.90
25482;DHT22;13395;50.752;4.268;2022-07-18T00:03:27;17.90;99.90
25482;DHT22;13395;50.752;4.268;2022-07-18T00:05:53;17.90;99.90
25482;DHT22;13395;50.752;4.268;2022-07-18T00:08:19;17.80;99.90
25482;DHT22;13395;50.752;4.268;2022-07-18T00:10:45;17.70;99.90
25482;DHT22;13395;50.752;4.268;2022-07-18T00:13:10;17.60;99.90
25482;DHT22;13395;50.752;4.268;2022-07-18T00:15:37;17.70;99.90
25482;DHT22;13395;50.752;4.268;2022-07-18T00:18:03;17.70;99.90
25482;DHT22;13395;50.752;4.268;2022-07-18T00:20:29;17.70;99.90
25482;DHT22;13395;50.752;4.268;2022-07-18T00:22:55;17.80;99.90
25482;DHT22;13395;50.752;4.268;2022-07-18T00:25:21;17.80;99.90
25482;DHT22;13395;50.752;4.268;2022-07-18T00:27:47;17.80;99.90
25482;DHT22;13395;50.752;4.268;2022-07-18T00:30:13;17.80;99.90
25482;DHT22;13395;50.752;4.268;2022-07-18T00:32:39;17.70;99.90
25482;DHT22;13395;50.752;4.268;2022-07-18T00:35:05;17.70;99.90
25482;DHT22;13395;50.752;4.268;2022-07-18T00:37:30;17.70;99.90
25482;DHT22;13395;50.752;4.268;2022-07-18T00:39:56;17.70;99.90
25482;DHT22;13395;50.752;4.268;2022-07-18T00:42:22;17.60;99.90
25482;DHT22;13395;50.752;4.268;2022-07-18T00:44:55;17.60;99.90
25482;DHT22;13395;50.752;4.268;2022-07-18T00:47:21;17.60;99.90
25482;DHT22;13395;50.752;4.268;2022-07-18T00:49:47;17.60;99.90
25482;DHT22;13395;50.752;4.268;2022-07-18T00:52:13;17.50;99.90
25482;DHT22;13395;50.752;4.268;2022-07-18T00:54:39;17.40;99.90
25482;DHT22;13395;50.752;4.268;2022-07-18T00:57:05;17.40;99.90
25482;DHT22;13395;50.752;4.268;2022-07-18T00:59:31;17.30;99.90
25482;DHT22;13395;50.752;4.268;2022-07-18T01:02:29;17.20;99.90
25482;DHT22;13395;50.752;4.268;2022-07-18T01:04:55;17.10;99.90
25482;DHT22;13395;50.752;4.268;2022-07-18T01:07:21;17.10;99.90
25482;DHT22;13395;50.752;4.268;2022-07-18T01:09:46;16.90;99.90
25482;DHT22;13395;50.752;4.268;2022-07-18T01:12:12;16.90;99.90
25482;DHT22;13395;50.752;4.268;2022-07-18T01:14:38;16.80;99.90
25482;DHT22;13395;50.752;4.268;2022-07-18T01:17:12;16.80;99.90
25482;DHT22;13395;50.752;4.268;2022-07-18T01:19:38;16.80;99.90
25482;DHT22;13395;50.752;4.268;2022-07-18T01:22:04;16.90;99.90
25482;DHT22;13395;50.752;4.268;2022-07-18T01:24:29;17.00;99.90
25482;DHT22;13395;50.752;4.268;2022-07-18T01:26:55;17.00;99.90
25482;DHT22;13395;50.752;4.268;2022-07-18T01:29:20;17.00;99.90
25482;DHT22;13395;50.752;4.268;2022-07-18T01:31:46;17.00;99.90
25482;DHT22;13395;50.752;4.268;2022-07-18T01:34:12;17.00;99.90
25482;DHT22;13395;50.752;4.268;2022-07-18T01:36:38;17.00;99.90
25482;DHT22;13395;50.752;4.268;2022-07-18T01:39:04;17.00;99.90
25482;DHT22;13395;50.752;4.268;2022-07-18T01:41:29;17.00;99.90
25482;DHT22;13395;50.752;4.268;2022-07-18T01:43:55;17.00;99.90
25482;DHT22;13395;50.752;4.268;2022-07-18T01:46:20;17.00;99.90
25482;DHT22;13395;50.752;4.268;2022-07-18T01:48:46;17.00;99.90
25482;DHT22;13395;50.752;4.268;2022-07-18T01:51:12;16.90;99.90
25482;DHT22;13395;50.752;4.268;2022-07-18T01:53:39;17.00;99.90
25482;DHT22;13395;50.752;4.268;2022-07-18T01:56:05;16.90;99.90
25482;DHT22;13395;50.752;4.268;2022-07-18T01:58:31;16.90;99.90
25482;DHT22;13395;50.752;4.268;2022-07-18T02:00:56;16.80;99.90
25482;DHT22;13395;50.752;4.268;2022-07-18T02:03:22;16.80;99.90
25482;DHT22;13395;50.752;4.268;2022-07-18T02:05:48;16.70;99.90
25482;DHT22;13395;50.752;4.268;2022-07-18T02:08:13;16.70;99.90
25482;DHT22;13395;50.752;4.268;2022-07-18T02:10:39;16.60;99.90
25482;DHT22;13395;50.752;4.268;2022-07-18T02:13:05;16.60;99.90
25482;DHT22;13395;50.752;4.268;2022-07-18T02:15:30;16.60;99.90
25482;DHT22;13395;50.752;4.268;2022-07-18T02:17:56;16.50;99.90
25482;DHT22;13395;50.752;4.268;2022-07-18T02:20:23;16.60;99.90
25482;DHT22;13395;50.752;4.268;2022-07-18T02:22:48;16.50;99.90
25482;DHT22;13395;50.752;4.268;2022-07-18T02:25:14;16.50;99.90
25482;DHT22;13395;50.752;4.268;2022-07-18T02:27:40;16.40;99.90
25482;DHT22;13395;50.752;4.268;2022-07-18T02:30:07;16.40;99.90
25482;DHT22;13395;50.752;4.268;2022-07-18T02:32:33;16.40;99.90
25482;DHT22;13395;50.752;4.268;2022-07-18T02:35:03;16.40;99.90
25482;DHT22;13395;50.752;4.268;2022-07-18T02:37:29;16.30;99.90
25482;DHT22;13395;50.752;4.268;2022-07-18T02:39:54;16.30;99.90
25482;DHT22;13395;50.752;4.268;2022-07-18T02:42:20;16.30;99.90
25482;DHT22;13395;50.752;4.268;2022-07-18T02:44:45;16.20;99.90
25482;DHT22;13395;50.752;4.268;2022-07-18T02:47:11;16.20;99.90
25482;DHT22;13395;50.752;4.268;2022-07-18T02:49:37;16.20;99.90
25482;DHT22;13395;50.752;4.268;2022-07-18T02:52:06;16.20;99.90
25482;DHT22;13395;50.752;4.268;2022-07-18T02:54:35;16.10;99.90
25482;DHT22;13395;50.752;4.268;2022-07-18T02:57:01;16.10;99.90
25482;DHT22;13395;50.752;4.268;2022-07-18T02:59:27;16.10;99.90
25482;DHT22;13395;50.752;4.268;2022-07-18T03:01:54;16.20;99.90
25482;DHT22;13395;50.752;4.268;2022-07-18T03:04:20;16.10;99.90
25482;DHT22;13395;50.752;4.268;2022-07-18T03:06:46;16.10;99.90
25482;DHT22;13395;50.752;4.268;2022-07-18T03:09:13;16.00;99.90
25482;DHT22;13395;50.752;4.268;2022-07-18T03:11:39;16.00;99.90
25482;DHT22;13395;50.752;4.268;2022-07-18T03:14:04;16.00;99.90
25482;DHT22;13395;50.752;4.268;2022-07-18T03:16:30;15.90;99.90
25482;DHT22;13395;50.752;4.268;2022-07-18T03:18:56;15.90;99.90
25482;DHT22;13395;50.752;4.268;2022-07-18T03:21:21;15.80;99.90
25482;DHT22;13395;50.752;4.268;2022-07-18T03:23:47;15.90;99.90
25482;DHT22;13395;50.752;4.268;2022-07-18T03:26:13;15.90;99.90
25482;DHT22;13395;50.752;4.268;2022-07-18T03:28:38;15.90;99.90
25482;DHT22;13395;50.752;4.268;2022-07-18T03:31:04;15.90;99.90
25482;DHT22;13395;50.752;4.268;2022-07-18T03:33:30;15.90;99.90
25482;DHT22;13395;50.752;4.268;2022-07-18T03:35:56;15.90;99.90
25482;DHT22;13395;50.752;4.268;2022-07-18T03:38:21;15.90;99.90
25482;DHT22;13395;50.752;4.268;2022-07-18T03:40:47;16.00;99.90
25482;DHT22;13395;50.752;4.268;2022-07-18T03:43:13;15.90;99.90
25482;DHT22;13395;50.752;4.268;2022-07-18T03:45:39;16.00;99.90
25482;DHT22;13395;50.752;4.268;2022-07-18T03:48:04;16.00;99.90
25482;DHT22;13395;50.752;4.268;2022-07-18T03:50:30;16.00;99.90
25482;DHT22;13395;50.752;4.268;2022-07-18T03:52:56;16.00;99.90
25482;DHT22;13395;50.752;4.268;2022-07-18T03:55:22;16.00;99.90
25482;DHT22;13395;50.752;4.268;2022-07-18T03:57:48;15.90;99.90
25482;DHT22;13395;50.752;4.268;2022-07-18T04:00:13;15.90;99.90
25482;DHT22;13395;50.752;4.268;2022-07-18T04:02:41;15.90;99.90
25482;DHT22;13395;50.752;4.268;2022-07-18T04:05:07;15.90;99.90
25482;DHT22;13395;50.752;4.268;2022-07-18T04:07:33;16.00;99.90
25482;DHT22;13395;50.752;4.268;2022-07-18T04:09:59;16.10;99.90
25482;DHT22;13395;50.752;4.268;2022-07-18T04:12:24;16.10;99.90
25482;DHT22;13395;50.752;4.268;2022-07-18T04:14:50;16.10;99.90
25482;DHT22;13395;50.752;4.268;2022-07-18T04:17:15;16.10;99.90
25482;DHT22;13395;50.752;4.268;2022-07-18T04:19:41;16.20;99.90
25482;DHT22;13395;50.752;4.268;2022-07-18T04:22:07;16.30;99.90
25482;DHT22;13395;50.752;4.268;2022-07-18T04:24:32;16.50;99.90
25482;DHT22;13395;50.752;4.268;2022-07-18T04:26:58;16.50;99.90
25482;DHT22;13395;50.752;4.268;2022-07-18T04:29:23;16.70;99.90
25482;DHT22;13395;50.752;4.268;2022-07-18T04:31:49;16.80;99.90
25482;DHT22;13395;50.752;4.268;2022-07-18T04:34:14;17.00;99.90
25482;DHT22;13395;50.752;4.268;2022-07-18T04:36:40;17.10;99.90
25482;DHT22;13395;50.752;4.268;2022-07-18T04:39:06;17.20;99.90
25482;DHT22;13395;50.752;4.268;2022-07-18T04:41:31;17.30;99.90
25482;DHT22;13395;50.752;4.268;2022-07-18T04:43:57;17.30;99.90
25482;DHT22;13395;50.752;4.268;2022-07-18T04:46:23;17.30;99.90
25482;DHT22;13395;50.752;4.268;2022-07-18T04:48:48;17.40;99.90
25482;DHT22;13395;50.752;4.268;2022-07-18T04:51:14;17.50;99.90
25482;DHT22;13395;50.752;4.268;2022-07-18T04:53:39;17.50;99.90
25482;DHT22;13395;50.752;4.268;2022-07-18T04:56:05;17.60;99.90
25482;DHT22;13395;50.752;4.268;2022-07-18T04:58:31;17.70;99.90
25482;DHT22;13395;50.752;4.268;2022-07-18T05:00:56;17.80;99.90
25482;DHT22;13395;50.752;4.268;2022-07-18T05:03:22;17.80;99.90
25482;DHT22;13395;50.752;4.268;2022-07-18T05:05:47;18.00;99.90
25482;DHT22;13395;50.752;4.268;2022-07-18T05:08:13;18.10;99.90
25482;DHT22;13395;50.752;4.268;2022-07-18T05:10:40;18.30;99.90
25482;DHT22;13395;50.752;4.268;2022-07-18T05:13:05;18.40;99.90
25482;DHT22;13395;50.752;4.268;2022-07-18T05:15:31;18.80;99.90
25482;DHT22;13395;50.752;4.268;2022-07-18T05:17:57;19.40;99.90
25482;DHT22;13395;50.752;4.268;2022-07-18T05:20:24;20.20;99.90
25482;DHT22;13395;50.752;4.268;2022-07-18T05:22:50;20.80;99.90
25482;DHT22;13395;50.752;4.268;2022-07-18T05:25:17;21.40;99.90
25482;DHT22;13395;50.752;4.268;2022-07-18T05:27:43;21.90;99.90
25482;DHT22;13395;50.752;4.268;2022-07-18T05:30:11;22.30;99.50
25482;DHT22;13395;50.752;4.268;2022-07-18T05:32:41;22.50;98.90
25482;DHT22;13395;50.752;4.268;2022-07-18T05:35:08;22.80;97.50
25482;DHT22;13395;50.752;4.268;2022-07-18T05:37:35;23.30;96.40
25482;DHT22;13395;50.752;4.268;2022-07-18T05:40:03;23.70;96.10
25482;DHT22;13395;50.752;4.268;2022-07-18T05:42:29;24.30;94.70
25482;DHT22;13395;50.752;4.268;2022-07-18T05:44:55;24.80;93.40
25482;DHT22;13395;50.752;4.268;2022-07-18T05:47:20;25.20;92.20
25482;DHT22;13395;50.752;4.268;2022-07-18T05:49:46;25.40;91.40
25482;DHT22;13395;50.752;4.268;2022-07-18T05:52:12;25.70;89.00
25482;DHT22;13395;50.752;4.268;2022-07-18T05:54:37;26.10;88.40
25482;DHT22;13395;50.752;4.268;2022-07-18T05:57:03;26.30;87.80
25482;DHT22;13395;50.752;4.268;2022-07-18T05:59:29;26.70;83.80
25482;DHT22;13395;50.752;4.268;2022-07-18T06:01:54;26.90;83.50
25482;DHT22;13395;50.752;4.268;2022-07-18T06:04:20;26.80;81.30
25482;DHT22;13395;50.752;4.268;2022-07-18T06:06:45;26.90;82.20
25482;DHT22;13395;50.752;4.268;2022-07-18T06:09:14;27.00;81.80
25482;DHT22;13395;50.752;4.268;2022-07-18T06:11:39;27.30;80.10
25482;DHT22;13395;50.752;4.268;2022-07-18T06:14:05;27.00;77.70
25482;DHT22;13395;50.752;4.268;2022-07-18T06:16:31;27.10;77.10
25482;DHT22;13395;50.752;4.268;2022-07-18T06:18:57;27.20;77.50
25482;DHT22;13395;50.752;4.268;2022-07-18T06:21:23;27.60;76.30
25482;DHT22;13395;50.752;4.268;2022-07-18T06:23:49;28.20;75.40
25482;DHT22;13395;50.752;4.268;2022-07-18T06:26:14;28.40;72.20
25482;DHT22;13395;50.752;4.268;2022-07-18T06:28:40;28.80;72.40
25482;DHT22;13395;50.752;4.268;2022-07-18T06:31:06;29.50;69.10
25482;DHT22;13395;50.752;4.268;2022-07-18T06:33:31;30.00;68.10
25482;DHT22;13395;50.752;4.268;2022-07-18T06:35:57;30.60;66.70
25482;DHT22;13395;50.752;4.268;2022-07-18T06:38:23;31.00;65.30
25482;DHT22;13395;50.752;4.268;2022-07-18T06:40:49;30.70;62.90
25482;DHT22;13395;50.752;4.268;2022-07-18T06:43:14;30.00;64.20
25482;DHT22;13395;50.752;4.268;2022-07-18T06:45:48;29.30;66.60
25482;DHT22;13395;50.752;4.268;2022-07-18T06:48:15;28.70;66.80
25482;DHT22;13395;50.752;4.268;2022-07-18T06:50:40;29.00;66.00
25482;DHT22;13395;50.752;4.268;2022-07-18T06:53:06;29.80;65.80
25482;DHT22;13395;50.752;4.268;2022-07-18T06:55:32;30.50;63.60
25482;DHT22;13395;50.752;4.268;2022-07-18T06:57:58;31.30;63.50
25482;DHT22;13395;50.752;4.268;2022-07-18T07:00:24;32.30;63.60
25482;DHT22;13395;50.752;4.268;2022-07-18T07:02:49;32.90;61.80
25482;DHT22;13395;50.752;4.268;2022-07-18T07:05:17;33.50;60.70
25482;DHT22;13395;50.752;4.268;2022-07-18T07:07:43;34.00;60.70
25482;DHT22;13395;50.752;4.268;2022-07-18T07:10:09;34.50;59.50
25482;DHT22;13395;50.752;4.268;2022-07-18T07:12:39;34.70;58.20
25482;DHT22;13395;50.752;4.268;2022-07-18T07:15:06;34.50;58.50
25482;DHT22;13395;50.752;4.268;2022-07-18T07:17:32;35.00;56.50
25482;DHT22;13395;50.752;4.268;2022-07-18T07:19:57;35.30;56.80
25482;DHT22;13395;50.752;4.268;2022-07-18T07:22:23;36.10;57.50
25482;DHT22;13395;50.752;4.268;2022-07-18T07:24:49;36.40;56.70
25482;DHT22;13395;50.752;4.268;2022-07-18T07:27:15;36.90;53.70
25482;DHT22;13395;50.752;4.268;2022-07-18T07:29:40;37.20;52.20
25482;DHT22;13395;50.752;4.268;2022-07-18T07:32:06;37.10;50.20
25482;DHT22;13395;50.752;4.268;2022-07-18T07:34:31;37.40;49.90
25482;DHT22;13395;50.752;4.268;2022-07-18T07:36:57;36.40;48.10
25482;DHT22;13395;50.752;4.268;2022-07-18T07:39:23;37.00;49.90
25482;DHT22;13395;50.752;4.268;2022-07-18T07:41:49;36.50;49.70
25482;DHT22;13395;50.752;4.268;2022-07-18T07:44:15;37.30;49.50
25482;DHT22;13395;50.752;4.268;2022-07-18T07:46:41;38.40;49.70
25482;DHT22;13395;50.752;4.268;2022-07-18T07:49:06;39.00;44.90
25482;DHT22;13395;50.752;4.268;2022-07-18T07:51:32;39.00;45.40
25482;DHT22;13395;50.752;4.268;2022-07-18T07:53:58;39.30;46.50
25482;DHT22;13395;50.752;4.268;2022-07-18T07:56:23;39.10;44.40
25482;DHT22;13395;50.752;4.268;2022-07-18T07:58:49;39.70;44.50
25482;DHT22;13395;50.752;4.268;2022-07-18T08:01:16;40.00;46.00
25482;DHT22;13395;50.752;4.268;2022-07-18T08:03:45;39.80;42.50
25482;DHT22;13395;50.752;4.268;2022-07-18T08:06:11;39.70;40.60
25482;DHT22;13395;50.752;4.268;2022-07-18T08:08:37;39.20;42.30
25482;DHT22;13395;50.752;4.268;2022-07-18T08:11:03;40.30;42.60
25482;DHT22;13395;50.752;4.268;2022-07-18T08:13:28;40.10;38.80
25482;DHT22;13395;50.752;4.268;2022-07-18T08:15:54;39.90;43.10
25482;DHT22;13395;50.752;4.268;2022-07-18T08:18:19;39.40;41.70
25482;DHT22;13395;50.752;4.268;2022-07-18T08:20:45;39.90;39.90
25482;DHT22;13395;50.752;4.268;2022-07-18T08:23:11;39.40;41.60
25482;DHT22;13395;50.752;4.268;2022-07-18T08:25:38;39.50;43.20
25482;DHT22;13395;50.752;4.268;2022-07-18T08:28:06;39.20;39.90
25482;DHT22;13395;50.752;4.268;2022-07-18T08:30:33;39.10;45.30
25482;DHT22;13395;50.752;4.268;2022-07-18T08:32:59;39.50;40.50
25482;DHT22;13395;50.752;4.268;2022-07-18T08:35:26;39.70;39.00
25482;DHT22;13395;50.752;4.268;2022-07-18T08:37:52;40.00;39.90
25482;DHT22;13395;50.752;4.268;2022-07-18T08:40:18;39.90;39.00
25482;DHT22;13395;50.752;4.268;2022-07-18T08:42:44;40.20;41.30
25482;DHT22;13395;50.752;4.268;2022-07-18T08:45:10;40.10;41.30
25482;DHT22;13395;50.752;4.268;2022-07-18T08:47:36;40.10;40.80
25482;DHT22;13395;50.752;4.268;2022-07-18T08:50:02;40.80;37.50
25482;DHT22;13395;50.752;4.268;2022-07-18T08:52:29;40.60;38.20
25482;DHT22;13395;50.752;4.268;2022-07-18T08:54:56;40.00;39.50
25482;DHT22;13395;50.752;4.268;2022-07-18T08:57:22;40.40;43.40
25482;DHT22;13395;50.752;4.268;2022-07-18T08:59:49;40.90;43.80
25482;DHT22;13395;50.752;4.268;2022-07-18T09:02:15;41.80;40.20
25482;DHT22;13395;50.752;4.268;2022-07-18T09:04:42;42.30;37.40
25482;DHT22;13395;50.752;4.268;2022-07-18T09:07:09;43.10;37.10
25482;DHT22;13395;50.752;4.268;2022-07-18T09:09:36;42.80;36.70
25482;DHT22;13395;50.752;4.268;2022-07-18T09:12:07;42.80;36.20
25482;DHT22;13395;50.752;4.268;2022-07-18T09:20:09;43.30;36.50
25482;DHT22;13395;50.752;4.268;2022-07-18T09:22:41;44.60;33.20
25482;DHT22;13395;50.752;4.268;2022-07-18T09:25:09;44.70;36.90
25482;DHT22;13395;50.752;4.268;2022-07-18T09:27:44;45.00;34.30
25482;DHT22;13395;50.752;4.268;2022-07-18T09:32:46;44.90;31.40
25482;DHT22;13395;50.752;4.268;2022-07-18T09:35:18;45.00;30.10
25482;DHT22;13395;50.752;4.268;2022-07-18T09:38:00;44.30;30.20
25482;DHT22;13395;50.752;4.268;2022-07-18T09:40:43;45.10;33.50
25482;DHT22;13395;50.752;4.268;2022-07-18T09:43:14;46.00;30.60
25482;DHT22;13395;50.752;4.268;2022-07-18T09:45:48;46.30;34.70
25482;DHT22;13395;50.752;4.268;2022-07-18T09:48:22;46.40;31.60
25482;DHT22;13395;50.752;4.268;2022-07-18T09:51:00;46.60;30.70
25482;DHT22;13395;50.752;4.268;2022-07-18T09:53:30;46.40;30.70
25482;DHT22;13395;50.752;4.268;2022-07-18T09:55:58;47.20;29.60
25482;DHT22;13395;50.752;4.268;2022-07-18T09:58:26;47.20;29.80
25482;DHT22;13395;50.752;4.268;2022-07-18T10:00:54;46.80;28.80
25482;DHT22;13395;50.752;4.268;2022-07-18T10:03:21;47.40;29.70
25482;DHT22;13395;50.752;4.268;2022-07-18T10:05:48;47.20;29.80
25482;DHT22;13395;50.752;4.268;2022-07-18T10:08:16;47.30;28.80
25482;DHT22;13395;50.752;4.268;2022-07-18T10:10:44;48.00;28.90
25482;DHT22;13395;50.752;4.268;2022-07-18T10:13:10;47.50;28.80
25482;DHT22;13395;50.752;4.268;2022-07-18T10:15:39;48.00;29.50
25482;DHT22;13395;50.752;4.268;2022-07-18T10:18:07;47.90;28.60
25482;DHT22;13395;50.752;4.268;2022-07-18T10:20:43;47.40;28.50
25482;DHT22;13395;50.752;4.268;2022-07-18T10:26:15;48.30;29.20
25482;DHT22;13395;50.752;4.268;2022-07-18T10:36:39;48.70;26.70
25482;DHT22;13395;50.752;4.268;2022-07-18T10:39:18;48.90;27.30
25482;DHT22;13395;50.752;4.268;2022-07-18T10:47:04;48.30;25.90
25482;DHT22;13395;50.752;4.268;2022-07-18T10:57:27;47.60;27.80
25482;DHT22;13395;50.752;4.268;2022-07-18T11:00:09;47.80;26.80
25482;DHT22;13395;50.752;4.268;2022-07-18T11:16:14;48.30;25.80
25482;DHT22;13395;50.752;4.268;2022-07-18T11:21:19;48.20;25.50
25482;DHT22;13395;50.752;4.268;2022-07-18T11:23:48;48.20;26.20
25482;DHT22;13395;50.752;4.268;2022-07-18T11:26:15;47.90;26.60
25482;DHT22;13395;50.752;4.268;2022-07-18T11:28:41;47.10;24.80
25482;DHT22;13395;50.752;4.268;2022-07-18T11:31:10;46.60;25.30
25482;DHT22;13395;50.752;4.268;2022-07-18T11:33:40;47.60;28.30
25482;DHT22;13395;50.752;4.268;2022-07-18T11:36:08;48.70;25.60
25482;DHT22;13395;50.752;4.268;2022-07-18T11:38:35;49.30;25.90
25482;DHT22;13395;50.752;4.268;2022-07-18T11:41:02;48.60;25.70
25482;DHT22;13395;50.752;4.268;2022-07-18T11:43:28;48.10;25.30
25482;DHT22;13395;50.752;4.268;2022-07-18T11:46:06;48.10;25.40
25482;DHT22;13395;50.752;4.268;2022-07-18T11:48:34;48.00;25.00
25482;DHT22;13395;50.752;4.268;2022-07-18T11:51:00;48.20;27.20
25482;DHT22;13395;50.752;4.268;2022-07-18T11:53:26;48.10;25.70
25482;DHT22;13395;50.752;4.268;2022-07-18T11:55:53;48.20;25.90
25482;DHT22;13395;50.752;4.268;2022-07-18T11:58:19;48.70;25.50
25482;DHT22;13395;50.752;4.268;2022-07-18T12:00:46;47.80;26.70
25482;DHT22;13395;50.752;4.268;2022-07-18T12:05:40;48.60;26.40
25482;DHT22;13395;50.752;4.268;2022-07-18T12:08:29;48.70;27.00
25482;DHT22;13395;50.752;4.268;2022-07-18T12:11:15;49.60;25.30
25482;DHT22;13395;50.752;4.268;2022-07-18T12:16:33;46.50;26.10
25482;DHT22;13395;50.752;4.268;2022-07-18T12:21:55;46.90;27.20
25482;DHT22;13395;50.752;4.268;2022-07-18T12:35:04;46.90;25.40
25482;DHT22;13395;50.752;4.268;2022-07-18T12:37:30;46.80;27.00
25482;DHT22;13395;50.752;4.268;2022-07-18T12:40:10;46.80;26.20
25482;DHT22;13395;50.752;4.268;2022-07-18T12:42:38;46.90;25.40
25482;DHT22;13395;50.752;4.268;2022-07-18T12:45:05;46.10;26.20
25482;DHT22;13395;50.752;4.268;2022-07-18T12:47:31;45.90;26.10
25482;DHT22;13395;50.752;4.268;2022-07-18T12:49:57;46.00;25.90
25482;DHT22;13395;50.752;4.268;2022-07-18T12:52:23;46.30;26.90
25482;DHT22;13395;50.752;4.268;2022-07-18T12:54:49;46.50;27.20
25482;DHT22;13395;50.752;4.268;2022-07-18T12:57:16;46.50;27.30
25482;DHT22;13395;50.752;4.268;2022-07-18T12:59:42;45.60;26.90
25482;DHT22;13395;50.752;4.268;2022-07-18T13:02:08;44.60;26.90
25482;DHT22;13395;50.752;4.268;2022-07-18T13:04:33;44.00;27.50
25482;DHT22;13395;50.752;4.268;2022-07-18T13:06:59;43.40;27.90
25482;DHT22;13395;50.752;4.268;2022-07-18T13:09:25;42.30;27.90
25482;DHT22;13395;50.752;4.268;2022-07-18T13:11:50;41.90;28.80
25482;DHT22;13395;50.752;4.268;2022-07-18T13:14:17;41.20;28.90
25482;DHT22;13395;50.752;4.268;2022-07-18T13:16:46;40.90;29.00
25482;DHT22;13395;50.752;4.268;2022-07-18T13:19:14;40.70;30.30
25482;DHT22;13395;50.752;4.268;2022-07-18T13:21:41;40.30;27.80
25482;DHT22;13395;50.752;4.268;2022-07-18T13:24:07;40.00;29.40
25482;DHT22;13395;50.752;4.268;2022-07-18T13:26:32;40.30;30.00
25482;DHT22;13395;50.752;4.268;2022-07-18T13:28:58;40.00;31.40
25482;DHT22;13395;50.752;4.268;2022-07-18T13:31:24;40.10;30.30
25482;DHT22;13395;50.752;4.268;2022-07-18T13:33:50;40.00;29.30
25482;DHT22;13395;50.752;4.268;2022-07-18T13:36:18;39.40;30.40
25482;DHT22;13395;50.752;4.268;2022-07-18T13:38:44;39.10;30.00
25482;DHT22;13395;50.752;4.268;2022-07-18T13:41:10;38.80;30.60
25482;DHT22;13395;50.752;4.268;2022-07-18T13:43:36;38.90;31.40
25482;DHT22;13395;50.752;4.268;2022-07-18T13:46:10;39.00;32.20
25482;DHT22;13395;50.752;4.268;2022-07-18T13:48:36;38.70;30.50
25482;DHT22;13395;50.752;4.268;2022-07-18T13:51:02;38.60;32.00
25482;DHT22;13395;50.752;4.268;2022-07-18T13:53:28;38.90;34.90
25482;DHT22;13395;50.752;4.268;2022-07-18T13:55:54;39.00;32.00
25482;DHT22;13395;50.752;4.268;2022-07-18T13:58:20;38.90;30.60
25482;DHT22;13395;50.752;4.268;2022-07-18T14:00:45;38.80;30.20
25482;DHT22;13395;50.752;4.268;2022-07-18T14:03:11;38.80;30.30
25482;DHT22;13395;50.752;4.268;2022-07-18T14:05:38;38.60;31.30
25482;DHT22;13395;50.752;4.268;2022-07-18T14:08:05;38.70;32.50
25482;DHT22;13395;50.752;4.268;2022-07-18T14:10:31;38.90;31.30
25482;DHT22;13395;50.752;4.268;2022-07-18T14:12:56;38.60;31.10
25482;DHT22;13395;50.752;4.268;2022-07-18T14:15:22;38.30;31.70
25482;DHT22;13395;50.752;4.268;2022-07-18T14:17:48;38.40;31.00
25482;DHT22;13395;50.752;4.268;2022-07-18T14:20:13;38.40;31.10
25482;DHT22;13395;50.752;4.268;2022-07-18T14:22:41;38.30;31.20
25482;DHT22;13395;50.752;4.268;2022-07-18T14:25:09;38.30;30.70
25482;DHT22;13395;50.752;4.268;2022-07-18T14:27:35;38.30;31.60
25482;DHT22;13395;50.752;4.268;2022-07-18T14:30:01;38.20;31.80
25482;DHT22;13395;50.752;4.268;2022-07-18T14:32:28;38.20;30.50
25482;DHT22;13395;50.752;4.268;2022-07-18T14:34:53;38.30;32.90
25482;DHT22;13395;50.752;4.268;2022-07-18T14:37:19;38.40;31.80
25482;DHT22;13395;50.752;4.268;2022-07-18T14:39:45;38.30;31.50
25482;DHT22;13395;50.752;4.268;2022-07-18T14:42:11;38.00;30.80
25482;DHT22;13395;50.752;4.268;2022-07-18T14:44:37;38.20;32.60
25482;DHT22;13395;50.752;4.268;2022-07-18T14:47:03;38.30;33.50
25482;DHT22;13395;50.752;4.268;2022-07-18T14:49:29;38.40;32.90
25482;DHT22;13395;50.752;4.268;2022-07-18T14:51:55;38.50;33.70
25482;DHT22;13395;50.752;4.268;2022-07-18T14:54:20;38.40;31.30
25482;DHT22;13395;50.752;4.268;2022-07-18T14:56:46;38.20;30.90
25482;DHT22;13395;50.752;4.268;2022-07-18T14:59:11;38.20;31.40
25482;DHT22;13395;50.752;4.268;2022-07-18T15:01:38;38.20;32.80
25482;DHT22;13395;50.752;4.268;2022-07-18T15:04:04;38.30;32.70
25482;DHT22;13395;50.752;4.268;2022-07-18T15:06:29;38.30;31.10
25482;DHT22;13395;50.752;4.268;2022-07-18T15:08:55;38.20;31.60
25482;DHT22;13395;50.752;4.268;2022-07-18T15:11:21;38.00;32.50
25482;DHT22;13395;50.752;4.268;2022-07-18T15:13:52;38.10;32.20
25482;DHT22;13395;50.752;4.268;2022-07-18T15:16:18;38.10;32.20
25482;DHT22;13395;50.752;4.268;2022-07-18T15:18:43;38.10;32.20
25482;DHT22;13395;50.752;4.268;2022-07-18T15:21:09;38.10;31.20
25482;DHT22;13395;50.752;4.268;2022-07-18T15:23:35;38.10;32.50
25482;DHT22;13395;50.752;4.268;2022-07-18T15:26:00;38.10;33.20
25482;DHT22;13395;50.752;4.268;2022-07-18T15:28:26;38.20;32.90
25482;DHT22;13395;50.752;4.268;2022-07-18T15:30:52;38.00;32.10
25482;DHT22;13395;50.752;4.268;2022-07-18T15:33:18;37.80;32.40
25482;DHT22;13395;50.752;4.268;2022-07-18T15:35:45;37.80;31.00
25482;DHT22;13395;50.752;4.268;2022-07-18T15:38:10;37.90;32.60
25482;DHT22;13395;50.752;4.268;2022-07-18T15:40:36;37.80;31.90
25482;DHT22;13395;50.752;4.268;2022-07-18T15:43:03;37.80;31.90
25482;DHT22;13395;50.752;4.268;2022-07-18T15:45:28;37.80;32.00
25482;DHT22;13395;50.752;4.268;2022-07-18T15:47:54;37.90;32.90
25482;DHT22;13395;50.752;4.268;2022-07-18T15:50:20;38.00;35.10
25482;DHT22;13395;50.752;4.268;2022-07-18T15:52:46;38.10;33.90
25482;DHT22;13395;50.752;4.268;2022-07-18T15:55:12;37.90;31.40
25482;DHT22;13395;50.752;4.268;2022-07-18T15:57:38;37.90;32.90
25482;DHT22;13395;50.752;4.268;2022-07-18T16:00:05;37.80;31.90
25482;DHT22;13395;50.752;4.268;2022-07-18T16:02:31;37.70;31.30
25482;DHT22;13395;50.752;4.268;2022-07-18T16:04:57;37.40;30.70
25482;DHT22;13395;50.752;4.268;2022-07-18T16:07:23;37.40;32.40
25482;DHT22;13395;50.752;4.268;2022-07-18T16:09:49;37.40;31.30
25482;DHT22;13395;50.752;4.268;2022-07-18T16:12:14;37.20;31.90
25482;DHT22;13395;50.752;4.268;2022-07-18T16:14:40;37.00;31.70
25482;DHT22;13395;50.752;4.268;2022-07-18T16:17:06;37.20;32.50
25482;DHT22;13395;50.752;4.268;2022-07-18T16:19:32;37.30;34.70
25482;DHT22;13395;50.752;4.268;2022-07-18T16:21:57;37.20;33.80
25482;DHT22;13395;50.752;4.268;2022-07-18T16:24:24;37.10;34.80
25482;DHT22;13395;50.752;4.268;2022-07-18T16:26:49;37.20;34.10
25482;DHT22;13395;50.752;4.268;2022-07-18T16:29:15;37.10;33.60
25482;DHT22;13395;50.752;4.268;2022-07-18T16:31:41;37.10;33.30
25482;DHT22;13395;50.752;4.268;2022-07-18T16:34:06;37.10;33.20